Bynum, North Carolina
Current Conditions -  °F | °C
As of 12:56 AM on Tuesday 27 Jan 2015 (Local Time) from KIGX Reporting Station
Overcast Overcast  
Wind Chill: 31°   Ceiling: 4800
Heat Index: 38°   Visibility: 10mi
Dew Point: 29°   Wind: 9mph
Humidity: 70%   Direction: 310°NW
Pressure: 29.7"   Gusts: NA
Location:  35.77°N, 79.14°W
Report Text: KIGX 270556Z AUTO 31008KT 10SM SCT030 BKN048 OVC070 03/M02 A2970 RMK AO2 SLP058 60001 T00331017 10072 20033 50001
Loading
Personal Weather Stations






























Interactive Weather Map New forecast layout! Learn more

10-Day Weather Forecast

Advertisements
Track Severe Weather on mobile